sensor_id;sensor_type;location;lat;lon;timestamp;P1;durP1;ratioP1;P2;durP2;ratioP2
38717;SDS011;24468;52.128;9.278;2022-12-18T00:01:05;20.52;;;12.57;;
38717;SDS011;24468;52.128;9.278;2022-12-18T00:03:46;22.88;;;13.25;;
38717;SDS011;24468;52.128;9.278;2022-12-18T00:06:12;21.85;;;12.07;;
38717;SDS011;24468;52.128;9.278;2022-12-18T00:08:38;19.08;;;10.82;;
38717;SDS011;24468;52.128;9.278;2022-12-18T00:11:06;18.20;;;11.80;;
38717;SDS011;24468;52.128;9.278;2022-12-18T00:13:34;19.02;;;11.02;;
38717;SDS011;24468;52.128;9.278;2022-12-18T00:16:03;20.63;;;10.80;;
38717;SDS011;24468;52.128;9.278;2022-12-18T00:18:32;19.70;;;11.10;;
38717;SDS011;24468;52.128;9.278;2022-12-18T00:20:58;19.20;;;11.00;;
38717;SDS011;24468;52.128;9.278;2022-12-18T00:23:30;20.27;;;9.95;;
38717;SDS011;24468;52.128;9.278;2022-12-18T00:26:00;20.40;;;10.75;;
38717;SDS011;24468;52.128;9.278;2022-12-18T00:28:29;20.30;;;9.85;;
38717;SDS011;24468;52.128;9.278;2022-12-18T00:31:09;16.75;;;9.77;;
38717;SDS011;24468;52.128;9.278;2022-12-18T00:33:36;17.30;;;10.30;;
38717;SDS011;24468;52.128;9.278;2022-12-18T00:36:07;20.95;;;11.95;;
38717;SDS011;24468;52.128;9.278;2022-12-18T00:38:39;24.15;;;12.88;;
38717;SDS011;24468;52.128;9.278;2022-12-18T00:41:05;28.02;;;13.93;;
38717;SDS011;24468;52.128;9.278;2022-12-18T00:43:32;20.33;;;12.52;;
38717;SDS011;24468;52.128;9.278;2022-12-18T00:45:57;19.83;;;11.20;;
38717;SDS011;24468;52.128;9.278;2022-12-18T00:48:23;20.48;;;12.48;;
38717;SDS011;24468;52.128;9.278;2022-12-18T00:50:49;22.83;;;13.43;;
38717;SDS011;24468;52.128;9.278;2022-12-18T00:53:16;19.90;;;11.73;;
38717;SDS011;24468;52.128;9.278;2022-12-18T00:55:41;22.90;;;12.63;;
38717;SDS011;24468;52.128;9.278;2022-12-18T00:58:08;19.63;;;11.88;;
38717;SDS011;24468;52.128;9.278;2022-12-18T01:00:35;21.02;;;12.45;;
38717;SDS011;24468;52.128;9.278;2022-12-18T01:03:01;20.48;;;11.60;;
38717;SDS011;24468;52.128;9.278;2022-12-18T01:05:27;20.38;;;12.07;;
38717;SDS011;24468;52.128;9.278;2022-12-18T01:07:53;21.75;;;12.40;;
38717;SDS011;24468;52.128;9.278;2022-12-18T01:10:20;18.88;;;11.82;;
38717;SDS011;24468;52.128;9.278;2022-12-18T01:12:46;23.42;;;13.98;;
38717;SDS011;24468;52.128;9.278;2022-12-18T01:15:12;18.92;;;12.15;;
38717;SDS011;24468;52.128;9.278;2022-12-18T01:17:39;24.65;;;13.38;;
38717;SDS011;24468;52.128;9.278;2022-12-18T01:20:05;18.48;;;11.73;;
38717;SDS011;24468;52.128;9.278;2022-12-18T01:22:31;21.00;;;10.98;;
38717;SDS011;24468;52.128;9.278;2022-12-18T01:24:57;20.52;;;12.43;;
38717;SDS011;24468;52.128;9.278;2022-12-18T01:27:22;20.02;;;11.23;;
38717;SDS011;24468;52.128;9.278;2022-12-18T01:29:48;16.33;;;10.65;;
38717;SDS011;24468;52.128;9.278;2022-12-18T01:32:14;17.38;;;10.63;;
38717;SDS011;24468;52.128;9.278;2022-12-18T01:34:40;18.55;;;10.13;;
38717;SDS011;24468;52.128;9.278;2022-12-18T01:37:05;21.58;;;10.90;;
38717;SDS011;24468;52.128;9.278;2022-12-18T01:39:31;18.52;;;12.23;;
38717;SDS011;24468;52.128;9.278;2022-12-18T01:41:58;20.27;;;12.05;;
38717;SDS011;24468;52.128;9.278;2022-12-18T01:47:30;21.58;;;13.00;;
38717;SDS011;24468;52.128;9.278;2022-12-18T01:50:00;22.73;;;13.45;;
38717;SDS011;24468;52.128;9.278;2022-12-18T01:52:40;22.90;;;12.88;;
38717;SDS011;24468;52.128;9.278;2022-12-18T01:55:10;22.38;;;12.13;;
38717;SDS011;24468;52.128;9.278;2022-12-18T01:57:37;21.17;;;11.40;;
38717;SDS011;24468;52.128;9.278;2022-12-18T02:00:08;18.85;;;10.45;;
38717;SDS011;24468;52.128;9.278;2022-12-18T02:02:41;18.83;;;11.05;;
38717;SDS011;24468;52.128;9.278;2022-12-18T02:05:09;15.68;;;10.82;;
38717;SDS011;24468;52.128;9.278;2022-12-18T02:07:41;17.77;;;10.95;;
38717;SDS011;24468;52.128;9.278;2022-12-18T02:10:27;18.55;;;10.55;;
38717;SDS011;24468;52.128;9.278;2022-12-18T02:13:02;16.98;;;11.10;;
38717;SDS011;24468;52.128;9.278;2022-12-18T02:16:09;19.60;;;11.18;;
38717;SDS011;24468;52.128;9.278;2022-12-18T02:19:06;20.17;;;11.82;;
38717;SDS011;24468;52.128;9.278;2022-12-18T02:27:46;18.75;;;11.18;;
38717;SDS011;24468;52.128;9.278;2022-12-18T02:30:15;17.73;;;10.55;;
38717;SDS011;24468;52.128;9.278;2022-12-18T02:32:47;18.45;;;9.40;;
38717;SDS011;24468;52.128;9.278;2022-12-18T02:35:19;15.15;;;10.18;;
38717;SDS011;24468;52.128;9.278;2022-12-18T02:37:50;16.63;;;10.00;;
38717;SDS011;24468;52.128;9.278;2022-12-18T02:40:17;19.67;;;10.75;;
38717;SDS011;24468;52.128;9.278;2022-12-18T02:42:46;20.10;;;10.75;;
38717;SDS011;24468;52.128;9.278;2022-12-18T02:45:12;16.98;;;10.30;;
38717;SDS011;24468;52.128;9.278;2022-12-18T02:47:38;18.63;;;10.02;;
38717;SDS011;24468;52.128;9.278;2022-12-18T02:50:10;19.67;;;12.15;;
38717;SDS011;24468;52.128;9.278;2022-12-18T02:53:10;17.27;;;9.68;;
38717;SDS011;24468;52.128;9.278;2022-12-18T02:58:47;18.20;;;11.63;;
38717;SDS011;24468;52.128;9.278;2022-12-18T03:01:40;19.38;;;10.02;;
38717;SDS011;24468;52.128;9.278;2022-12-18T03:06:53;15.38;;;9.55;;
38717;SDS011;24468;52.128;9.278;2022-12-18T03:09:31;16.45;;;9.93;;
38717;SDS011;24468;52.128;9.278;2022-12-18T03:12:11;14.93;;;10.07;;
38717;SDS011;24468;52.128;9.278;2022-12-18T03:14:57;13.40;;;8.68;;
38717;SDS011;24468;52.128;9.278;2022-12-18T03:17:30;16.05;;;9.20;;
38717;SDS011;24468;52.128;9.278;2022-12-18T03:20:00;12.93;;;8.25;;
38717;SDS011;24468;52.128;9.278;2022-12-18T03:22:35;15.23;;;9.48;;
38717;SDS011;24468;52.128;9.278;2022-12-18T03:25:04;16.70;;;8.90;;
38717;SDS011;24468;52.128;9.278;2022-12-18T03:27:35;18.20;;;9.95;;
38717;SDS011;24468;52.128;9.278;2022-12-18T03:30:07;20.85;;;10.98;;
38717;SDS011;24468;52.128;9.278;2022-12-18T03:32:56;14.98;;;8.45;;
38717;SDS011;24468;52.128;9.278;2022-12-18T03:35:39;17.67;;;10.15;;
38717;SDS011;24468;52.128;9.278;2022-12-18T03:38:07;15.20;;;9.50;;
38717;SDS011;24468;52.128;9.278;2022-12-18T03:40:56;16.40;;;9.43;;
38717;SDS011;24468;52.128;9.278;2022-12-18T03:43:42;14.00;;;8.38;;
38717;SDS011;24468;52.128;9.278;2022-12-18T03:52:19;28.40;;;17.05;;
38717;SDS011;24468;52.128;9.278;2022-12-18T03:54:53;20.33;;;13.18;;
38717;SDS011;24468;52.128;9.278;2022-12-18T03:57:23;21.55;;;10.38;;
38717;SDS011;24468;52.128;9.278;2022-12-18T04:00:07;15.13;;;9.18;;
38717;SDS011;24468;52.128;9.278;2022-12-18T04:02:39;16.83;;;9.20;;
38717;SDS011;24468;52.128;9.278;2022-12-18T04:05:10;20.02;;;9.85;;
38717;SDS011;24468;52.128;9.278;2022-12-18T04:07:38;17.67;;;10.38;;
38717;SDS011;24468;52.128;9.278;2022-12-18T04:10:05;11.95;;;7.68;;
38717;SDS011;24468;52.128;9.278;2022-12-18T04:12:34;13.23;;;8.95;;
38717;SDS011;24468;52.128;9.278;2022-12-18T04:15:02;15.30;;;9.43;;
38717;SDS011;24468;52.128;9.278;2022-12-18T04:17:28;17.95;;;11.68;;
38717;SDS011;24468;52.128;9.278;2022-12-18T04:19:53;15.57;;;10.15;;
38717;SDS011;24468;52.128;9.278;2022-12-18T04:22:19;14.27;;;9.45;;
38717;SDS011;24468;52.128;9.278;2022-12-18T04:24:44;17.15;;;10.98;;
38717;SDS011;24468;52.128;9.278;2022-12-18T04:27:10;14.70;;;8.25;;
38717;SDS011;24468;52.128;9.278;2022-12-18T04:29:35;14.18;;;9.63;;
38717;SDS011;24468;52.128;9.278;2022-12-18T04:32:01;13.15;;;8.35;;
38717;SDS011;24468;52.128;9.278;2022-12-18T04:34:26;14.75;;;9.32;;
38717;SDS011;24468;52.128;9.278;2022-12-18T04:36:52;14.40;;;8.63;;
38717;SDS011;24468;52.128;9.278;2022-12-18T04:39:17;15.95;;;8.18;;
38717;SDS011;24468;52.128;9.278;2022-12-18T04:41:43;11.73;;;7.57;;
38717;SDS011;24468;52.128;9.278;2022-12-18T04:44:09;10.80;;;7.85;;
38717;SDS011;24468;52.128;9.278;2022-12-18T04:46:34;12.52;;;7.15;;
38717;SDS011;24468;52.128;9.278;2022-12-18T04:49:00;14.48;;;8.27;;
38717;SDS011;24468;52.128;9.278;2022-12-18T04:51:25;11.23;;;7.38;;
38717;SDS011;24468;52.128;9.278;2022-12-18T04:53:51;12.38;;;7.68;;
38717;SDS011;24468;52.128;9.278;2022-12-18T04:56:16;13.15;;;8.43;;
38717;SDS011;24468;52.128;9.278;2022-12-18T04:58:43;11.55;;;7.47;;
38717;SDS011;24468;52.128;9.278;2022-12-18T05:01:09;11.35;;;7.35;;
38717;SDS011;24468;52.128;9.278;2022-12-18T05:03:37;14.13;;;7.95;;
38717;SDS011;24468;52.128;9.278;2022-12-18T05:06:03;14.88;;;9.30;;
38717;SDS011;24468;52.128;9.278;2022-12-18T05:08:30;14.82;;;9.15;;
38717;SDS011;24468;52.128;9.278;2022-12-18T05:11:00;14.88;;;8.52;;
38717;SDS011;24468;52.128;9.278;2022-12-18T05:13:34;15.75;;;8.60;;
38717;SDS011;24468;52.128;9.278;2022-12-18T05:16:00;12.68;;;7.70;;
38717;SDS011;24468;52.128;9.278;2022-12-18T05:18:26;11.40;;;7.43;;
38717;SDS011;24468;52.128;9.278;2022-12-18T05:20:52;13.23;;;8.52;;
38717;SDS011;24468;52.128;9.278;2022-12-18T05:23:19;13.30;;;7.70;;
38717;SDS011;24468;52.128;9.278;2022-12-18T05:25:49;12.40;;;8.10;;
38717;SDS011;24468;52.128;9.278;2022-12-18T05:28:20;13.48;;;8.60;;
38717;SDS011;24468;52.128;9.278;2022-12-18T05:30:55;13.50;;;7.97;;
38717;SDS011;24468;52.128;9.278;2022-12-18T05:33:23;13.75;;;7.68;;
38717;SDS011;24468;52.128;9.278;2022-12-18T05:35:51;13.52;;;7.82;;
38717;SDS011;24468;52.128;9.278;2022-12-18T05:38:18;10.32;;;7.70;;
38717;SDS011;24468;52.128;9.278;2022-12-18T05:40:46;15.25;;;8.13;;
38717;SDS011;24468;52.128;9.278;2022-12-18T05:43:13;16.40;;;8.45;;
38717;SDS011;24468;52.128;9.278;2022-12-18T05:45:39;15.23;;;8.60;;
38717;SDS011;24468;52.128;9.278;2022-12-18T05:48:05;12.52;;;8.32;;
38717;SDS011;24468;52.128;9.278;2022-12-18T05:50:35;11.95;;;7.15;;
38717;SDS011;24468;52.128;9.278;2022-12-18T05:53:03;14.73;;;8.88;;
38717;SDS011;24468;52.128;9.278;2022-12-18T05:55:29;12.50;;;7.47;;
38717;SDS011;24468;52.128;9.278;2022-12-18T05:57:59;14.27;;;8.70;;
38717;SDS011;24468;52.128;9.278;2022-12-18T06:00:25;13.07;;;7.63;;
38717;SDS011;24468;52.128;9.278;2022-12-18T06:02:51;10.45;;;8.50;;
38717;SDS011;24468;52.128;9.278;2022-12-18T06:05:16;11.52;;;7.60;;
38717;SDS011;24468;52.128;9.278;2022-12-18T06:07:42;16.35;;;7.43;;
38717;SDS011;24468;52.128;9.278;2022-12-18T06:10:07;12.38;;;8.20;;
38717;SDS011;24468;52.128;9.278;2022-12-18T06:12:33;13.30;;;8.32;;
38717;SDS011;24468;52.128;9.278;2022-12-18T06:14:59;12.55;;;8.23;;
38717;SDS011;24468;52.128;9.278;2022-12-18T06:17:31;18.63;;;9.20;;
38717;SDS011;24468;52.128;9.278;2022-12-18T06:19:57;13.23;;;8.18;;
38717;SDS011;24468;52.128;9.278;2022-12-18T06:22:23;12.32;;;8.10;;
38717;SDS011;24468;52.128;9.278;2022-12-18T06:24:49;13.20;;;8.45;;
38717;SDS011;24468;52.128;9.278;2022-12-18T06:27:15;11.82;;;7.43;;
38717;SDS011;24468;52.128;9.278;2022-12-18T06:29:41;12.68;;;8.73;;
38717;SDS011;24468;52.128;9.278;2022-12-18T06:32:06;10.27;;;7.03;;
38717;SDS011;24468;52.128;9.278;2022-12-18T06:34:32;13.52;;;7.20;;
38717;SDS011;24468;52.128;9.278;2022-12-18T06:36:58;14.90;;;8.15;;
38717;SDS011;24468;52.128;9.278;2022-12-18T06:39:24;12.05;;;7.78;;
38717;SDS011;24468;52.128;9.278;2022-12-18T06:41:52;14.85;;;9.02;;
38717;SDS011;24468;52.128;9.278;2022-12-18T06:44:17;14.25;;;9.00;;
38717;SDS011;24468;52.128;9.278;2022-12-18T06:46:43;11.50;;;7.88;;
38717;SDS011;24468;52.128;9.278;2022-12-18T06:49:08;14.90;;;8.30;;
38717;SDS011;24468;52.128;9.278;2022-12-18T06:51:34;11.93;;;8.15;;
38717;SDS011;24468;52.128;9.278;2022-12-18T06:54:00;12.57;;;7.72;;
38717;SDS011;24468;52.128;9.278;2022-12-18T06:56:26;12.98;;;8.07;;
38717;SDS011;24468;52.128;9.278;2022-12-18T06:58:52;12.18;;;7.22;;
38717;SDS011;24468;52.128;9.278;2022-12-18T07:01:18;11.48;;;7.00;;
38717;SDS011;24468;52.128;9.278;2022-12-18T07:03:44;12.93;;;8.38;;
38717;SDS011;24468;52.128;9.278;2022-12-18T07:06:18;11.60;;;7.85;;
38717;SDS011;24468;52.128;9.278;2022-12-18T07:08:46;11.60;;;7.45;;
38717;SDS011;24468;52.128;9.278;2022-12-18T07:11:12;12.98;;;9.40;;
38717;SDS011;24468;52.128;9.278;2022-12-18T07:13:38;15.77;;;10.43;;
38717;SDS011;24468;52.128;9.278;2022-12-18T07:16:08;15.05;;;10.55;;
38717;SDS011;24468;52.128;9.278;2022-12-18T07:18:38;18.42;;;10.13;;
38717;SDS011;24468;52.128;9.278;2022-12-18T07:21:04;16.67;;;9.65;;
38717;SDS011;24468;52.128;9.278;2022-12-18T07:23:33;12.20;;;7.75;;
38717;SDS011;24468;52.128;9.278;2022-12-18T07:26:00;11.70;;;7.20;;
38717;SDS011;24468;52.128;9.278;2022-12-18T07:28:30;10.35;;;6.95;;
38717;SDS011;24468;52.128;9.278;2022-12-18T07:30:56;12.27;;;7.65;;
38717;SDS011;24468;52.128;9.278;2022-12-18T07:33:22;11.70;;;7.25;;
38717;SDS011;24468;52.128;9.278;2022-12-18T07:35:48;14.73;;;7.68;;
38717;SDS011;24468;52.128;9.278;2022-12-18T07:38:13;14.55;;;8.20;;
38717;SDS011;24468;52.128;9.278;2022-12-18T07:40:39;13.68;;;8.35;;
38717;SDS011;24468;52.128;9.278;2022-12-18T07:43:04;14.00;;;9.10;;
38717;SDS011;24468;52.128;9.278;2022-12-18T07:45:30;13.60;;;8.60;;
38717;SDS011;24468;52.128;9.278;2022-12-18T07:47:55;13.23;;;7.85;;
38717;SDS011;24468;52.128;9.278;2022-12-18T07:50:21;12.10;;;8.65;;
38717;SDS011;24468;52.128;9.278;2022-12-18T07:52:46;13.77;;;8.32;;
38717;SDS011;24468;52.128;9.278;2022-12-18T07:55:12;15.52;;;8.45;;
38717;SDS011;24468;52.128;9.278;2022-12-18T07:57:37;10.90;;;8.38;;
38717;SDS011;24468;52.128;9.278;2022-12-18T08:00:03;13.25;;;7.53;;
38717;SDS011;24468;52.128;9.278;2022-12-18T08:02:32;12.68;;;8.93;;
38717;SDS011;24468;52.128;9.278;2022-12-18T08:04:58;13.20;;;8.30;;
38717;SDS011;24468;52.128;9.278;2022-12-18T08:07:23;12.93;;;7.47;;
38717;SDS011;24468;52.128;9.278;2022-12-18T08:09:49;15.00;;;8.68;;
38717;SDS011;24468;52.128;9.278;2022-12-18T08:12:14;13.70;;;8.57;;
38717;SDS011;24468;52.128;9.278;2022-12-18T08:14:40;11.10;;;7.78;;
38717;SDS011;24468;52.128;9.278;2022-12-18T08:17:05;12.18;;;8.68;;
38717;SDS011;24468;52.128;9.278;2022-12-18T08:19:31;15.50;;;9.30;;
38717;SDS011;24468;52.128;9.278;2022-12-18T08:21:57;17.77;;;9.65;;
38717;SDS011;24468;52.128;9.278;2022-12-18T08:24:22;17.35;;;10.63;;
38717;SDS011;24468;52.128;9.278;2022-12-18T08:26:48;19.50;;;10.18;;
38717;SDS011;24468;52.128;9.278;2022-12-18T08:29:13;20.17;;;12.35;;
38717;SDS011;24468;52.128;9.278;2022-12-18T08:31:39;21.17;;;12.18;;
38717;SDS011;24468;52.128;9.278;2022-12-18T08:34:04;17.50;;;9.75;;
38717;SDS011;24468;52.128;9.278;2022-12-18T08:36:30;15.23;;;9.55;;
38717;SDS011;24468;52.128;9.278;2022-12-18T08:38:56;15.18;;;9.73;;
38717;SDS011;24468;52.128;9.278;2022-12-18T08:41:21;12.73;;;8.90;;
38717;SDS011;24468;52.128;9.278;2022-12-18T08:43:47;16.35;;;10.20;;
38717;SDS011;24468;52.128;9.278;2022-12-18T08:46:32;17.73;;;9.93;;
38717;SDS011;24468;52.128;9.278;2022-12-18T08:49:03;13.23;;;7.78;;
38717;SDS011;24468;52.128;9.278;2022-12-18T08:51:29;11.45;;;7.82;;
38717;SDS011;24468;52.128;9.278;2022-12-18T08:53:55;14.90;;;10.30;;
38717;SDS011;24468;52.128;9.278;2022-12-18T08:56:20;13.48;;;8.15;;
38717;SDS011;24468;52.128;9.278;2022-12-18T08:58:46;12.05;;;7.53;;
38717;SDS011;24468;52.128;9.278;2022-12-18T09:01:12;10.55;;;7.25;;
38717;SDS011;24468;52.128;9.278;2022-12-18T09:03:38;12.35;;;7.82;;
38717;SDS011;24468;52.128;9.278;2022-12-18T09:06:05;11.23;;;7.57;;
38717;SDS011;24468;52.128;9.278;2022-12-18T09:08:31;11.25;;;6.97;;
38717;SDS011;24468;52.128;9.278;2022-12-18T09:10:56;14.48;;;7.10;;
38717;SDS011;24468;52.128;9.278;2022-12-18T09:13:22;12.95;;;8.57;;
38717;SDS011;24468;52.128;9.278;2022-12-18T09:15:48;13.68;;;8.95;;
38717;SDS011;24468;52.128;9.278;2022-12-18T09:18:17;15.10;;;8.88;;
38717;SDS011;24468;52.128;9.278;2022-12-18T09:20:44;14.73;;;8.07;;
38717;SDS011;24468;52.128;9.278;2022-12-18T09:23:10;14.10;;;8.48;;
38717;SDS011;24468;52.128;9.278;2022-12-18T09:25:36;11.73;;;8.15;;
38717;SDS011;24468;52.128;9.278;2022-12-18T09:28:03;14.10;;;9.30;;
38717;SDS011;24468;52.128;9.278;2022-12-18T09:30:40;13.32;;;8.00;;
38717;SDS011;24468;52.128;9.278;2022-12-18T09:33:09;13.40;;;6.97;;
38717;SDS011;24468;52.128;9.278;2022-12-18T09:35:39;10.98;;;8.05;;
38717;SDS011;24468;52.128;9.278;2022-12-18T09:38:06;13.82;;;9.55;;
38717;SDS011;24468;52.128;9.278;2022-12-18T09:40:34;18.27;;;11.70;;
38717;SDS011;24468;52.128;9.278;2022-12-18T09:43:06;13.35;;;8.77;;
38717;SDS011;24468;52.128;9.278;2022-12-18T09:45:42;15.60;;;9.25;;
38717;SDS011;24468;52.128;9.278;2022-12-18T09:50:47;12.45;;;9.35;;
38717;SDS011;24468;52.128;9.278;2022-12-18T09:53:15;15.88;;;9.93;;
38717;SDS011;24468;52.128;9.278;2022-12-18T09:55:47;13.15;;;9.20;;
38717;SDS011;24468;52.128;9.278;2022-12-18T09:58:18;16.58;;;9.45;;
38717;SDS011;24468;52.128;9.278;2022-12-18T10:00:58;15.52;;;9.23;;
38717;SDS011;24468;52.128;9.278;2022-12-18T10:03:23;14.90;;;9.35;;
38717;SDS011;24468;52.128;9.278;2022-12-18T10:08:45;13.13;;;7.90;;
38717;SDS011;24468;52.128;9.278;2022-12-18T10:14:36;13.98;;;8.52;;
38717;SDS011;24468;52.128;9.278;2022-12-18T10:20:27;13.05;;;7.72;;
38717;SDS011;24468;52.128;9.278;2022-12-18T10:26:12;13.05;;;8.52;;
38717;SDS011;24468;52.128;9.278;2022-12-18T10:28:39;11.13;;;7.88;;
38717;SDS011;24468;52.128;9.278;2022-12-18T10:31:06;10.82;;;7.90;;
38717;SDS011;24468;52.128;9.278;2022-12-18T10:33:44;10.50;;;6.63;;
38717;SDS011;24468;52.128;9.278;2022-12-18T10:36:10;13.63;;;7.47;;
38717;SDS011;24468;52.128;9.278;2022-12-18T10:38:36;11.77;;;7.20;;
38717;SDS011;24468;52.128;9.278;2022-12-18T10:41:04;14.32;;;6.97;;
38717;SDS011;24468;52.128;9.278;2022-12-18T10:43:42;9.93;;;6.68;;
38717;SDS011;24468;52.128;9.278;2022-12-18T10:48:34;12.93;;;7.97;;
38717;SDS011;24468;52.128;9.278;2022-12-18T10:51:18;11.63;;;7.25;;
38717;SDS011;24468;52.128;9.278;2022-12-18T10:56:38;12.85;;;7.93;;
38717;SDS011;24468;52.128;9.278;2022-12-18T10:59:08;11.75;;;9.38;;
38717;SDS011;24468;52.128;9.278;2022-12-18T11:01:50;11.25;;;7.80;;
38717;SDS011;24468;52.128;9.278;2022-12-18T11:06:52;10.63;;;7.38;;
38717;SDS011;24468;52.128;9.278;2022-12-18T11:09:25;10.07;;;6.72;;
38717;SDS011;24468;52.128;9.278;2022-12-18T11:11:54;16.30;;;10.80;;
38717;SDS011;24468;52.128;9.278;2022-12-18T11:14:25;10.25;;;6.82;;
38717;SDS011;24468;52.128;9.278;2022-12-18T11:16:54;14.18;;;8.65;;
38717;SDS011;24468;52.128;9.278;2022-12-18T11:19:28;16.73;;;10.93;;
38717;SDS011;24468;52.128;9.278;2022-12-18T11:22:23;12.80;;;7.95;;
38717;SDS011;24468;52.128;9.278;2022-12-18T11:25:05;18.65;;;11.02;;
38717;SDS011;24468;52.128;9.278;2022-12-18T11:28:03;17.23;;;10.50;;
38717;SDS011;24468;52.128;9.278;2022-12-18T11:30:50;16.38;;;10.10;;
38717;SDS011;24468;52.128;9.278;2022-12-18T11:33:47;13.05;;;7.72;;
38717;SDS011;24468;52.128;9.278;2022-12-18T11:36:25;9.45;;;6.40;;
38717;SDS011;24468;52.128;9.278;2022-12-18T11:38:59;11.82;;;6.68;;
38717;SDS011;24468;52.128;9.278;2022-12-18T11:41:36;8.98;;;6.38;;
38717;SDS011;24468;52.128;9.278;2022-12-18T11:44:33;9.73;;;6.38;;
38717;SDS011;24468;52.128;9.278;2022-12-18T11:47:19;13.52;;;8.57;;
38717;SDS011;24468;52.128;9.278;2022-12-18T11:49:56;14.02;;;9.13;;
38717;SDS011;24468;52.128;9.278;2022-12-18T11:52:35;12.93;;;6.35;;
38717;SDS011;24468;52.128;9.278;2022-12-18T11:55:17;7.55;;;6.05;;
38717;SDS011;24468;52.128;9.278;2022-12-18T11:57:54;12.50;;;6.60;;
38717;SDS011;24468;52.128;9.278;2022-12-18T12:00:32;7.77;;;6.43;;
38717;SDS011;24468;52.128;9.278;2022-12-18T12:06:24;10.80;;;6.43;;
38717;SDS011;24468;52.128;9.278;2022-12-18T12:14:50;12.77;;;6.22;;
38717;SDS011;24468;52.128;9.278;2022-12-18T12:17:42;12.77;;;6.55;;
38717;SDS011;24468;52.128;9.278;2022-12-18T12:20:20;9.82;;;6.15;;
38717;SDS011;24468;52.128;9.278;2022-12-18T12:26:18;10.82;;;6.60;;
38717;SDS011;24468;52.128;9.278;2022-12-18T12:29:15;9.13;;;6.22;;
38717;SDS011;24468;52.128;9.278;2022-12-18T12:32:23;8.75;;;5.80;;
38717;SDS011;24468;52.128;9.278;2022-12-18T12:35:25;9.65;;;5.97;;
38717;SDS011;24468;52.128;9.278;2022-12-18T12:38:20;8.35;;;5.78;;
38717;SDS011;24468;52.128;9.278;2022-12-18T12:40:52;12.07;;;6.50;;
38717;SDS011;24468;52.128;9.278;2022-12-18T12:46:10;8.68;;;5.55;;
38717;SDS011;24468;52.128;9.278;2022-12-18T12:48:46;9.85;;;6.40;;
38717;SDS011;24468;52.128;9.278;2022-12-18T12:51:22;8.50;;;5.32;;
38717;SDS011;24468;52.128;9.278;2022-12-18T12:53:55;9.93;;;6.70;;
38717;SDS011;24468;52.128;9.278;2022-12-18T12:56:24;8.65;;;5.63;;
38717;SDS011;24468;52.128;9.278;2022-12-18T12:59:16;8.27;;;5.45;;
38717;SDS011;24468;52.128;9.278;2022-12-18T13:02:19;9.20;;;6.03;;
38717;SDS011;24468;52.128;9.278;2022-12-18T13:07:56;9.15;;;5.68;;
38717;SDS011;24468;52.128;9.278;2022-12-18T13:20:47;8.68;;;4.85;;
38717;SDS011;24468;52.128;9.278;2022-12-18T13:23:26;7.78;;;5.22;;
38717;SDS011;24468;52.128;9.278;2022-12-18T13:34:30;9.80;;;5.70;;
38717;SDS011;24468;52.128;9.278;2022-12-18T13:36:54;8.40;;;6.47;;
38717;SDS011;24468;52.128;9.278;2022-12-18T13:39:41;7.97;;;6.28;;
38717;SDS011;24468;52.128;9.278;2022-12-18T13:44:39;9.20;;;6.72;;
38717;SDS011;24468;52.128;9.278;2022-12-18T13:47:39;10.60;;;7.65;;
38717;SDS011;24468;52.128;9.278;2022-12-18T13:50:15;12.73;;;7.75;;
38717;SDS011;24468;52.128;9.278;2022-12-18T13:52:49;10.13;;;7.25;;
38717;SDS011;24468;52.128;9.278;2022-12-18T13:55:18;9.88;;;6.50;;
38717;SDS011;24468;52.128;9.278;2022-12-18T13:57:45;11.13;;;5.80;;
38717;SDS011;24468;52.128;9.278;2022-12-18T14:00:27;9.93;;;6.43;;
38717;SDS011;24468;52.128;9.278;2022-12-18T14:02:55;10.55;;;6.75;;
38717;SDS011;24468;52.128;9.278;2022-12-18T14:05:23;9.43;;;6.30;;
38717;SDS011;24468;52.128;9.278;2022-12-18T14:07:51;8.15;;;5.60;;
38717;SDS011;24468;52.128;9.278;2022-12-18T14:10:18;9.90;;;5.65;;
38717;SDS011;24468;52.128;9.278;2022-12-18T14:12:46;7.97;;;5.97;;
38717;SDS011;24468;52.128;9.278;2022-12-18T14:17:53;8.30;;;6.05;;
38717;SDS011;24468;52.128;9.278;2022-12-18T14:20:25;8.27;;;5.55;;
38717;SDS011;24468;52.128;9.278;2022-12-18T14:22:53;9.32;;;5.05;;
38717;SDS011;24468;52.128;9.278;2022-12-18T14:25:22;8.70;;;6.07;;
38717;SDS011;24468;52.128;9.278;2022-12-18T14:30:35;9.57;;;6.00;;
38717;SDS011;24468;52.128;9.278;2022-12-18T14:33:11;7.10;;;5.70;;
38717;SDS011;24468;52.128;9.278;2022-12-18T14:40:57;6.72;;;4.30;;
38717;SDS011;24468;52.128;9.278;2022-12-18T14:43:32;8.38;;;5.68;;
38717;SDS011;24468;52.128;9.278;2022-12-18T14:46:00;8.52;;;5.47;;
38717;SDS011;24468;52.128;9.278;2022-12-18T14:48:35;8.77;;;5.80;;
38717;SDS011;24468;52.128;9.278;2022-12-18T14:56:34;10.23;;;5.65;;
38717;SDS011;24468;52.128;9.278;2022-12-18T14:59:11;11.85;;;6.63;;
38717;SDS011;24468;52.128;9.278;2022-12-18T15:02:11;10.00;;;6.35;;
38717;SDS011;24468;52.128;9.278;2022-12-18T15:05:04;8.27;;;4.68;;
38717;SDS011;24468;52.128;9.278;2022-12-18T15:07:53;8.45;;;6.63;;
38717;SDS011;24468;52.128;9.278;2022-12-18T15:12:49;8.50;;;6.18;;
38717;SDS011;24468;52.128;9.278;2022-12-18T15:20:33;10.05;;;6.38;;
38717;SDS011;24468;52.128;9.278;2022-12-18T15:23:17;10.95;;;6.78;;
38717;SDS011;24468;52.128;9.278;2022-12-18T15:25:49;9.60;;;6.15;;
38717;SDS011;24468;52.128;9.278;2022-12-18T15:28:23;9.60;;;6.18;;
38717;SDS011;24468;52.128;9.278;2022-12-18T15:30:57;9.10;;;6.85;;
38717;SDS011;24468;52.128;9.278;2022-12-18T15:33:40;10.82;;;6.70;;
38717;SDS011;24468;52.128;9.278;2022-12-18T15:36:12;12.07;;;7.22;;
38717;SDS011;24468;52.128;9.278;2022-12-18T15:38:40;9.52;;;6.38;;
38717;SDS011;24468;52.128;9.278;2022-12-18T15:41:14;10.57;;;6.75;;
38717;SDS011;24468;52.128;9.278;2022-12-18T15:43:42;10.15;;;6.80;;
38717;SDS011;24468;52.128;9.278;2022-12-18T15:46:13;9.45;;;6.75;;
38717;SDS011;24468;52.128;9.278;2022-12-18T15:48:44;14.55;;;7.45;;
38717;SDS011;24468;52.128;9.278;2022-12-18T15:54:00;8.80;;;6.13;;
38717;SDS011;24468;52.128;9.278;2022-12-18T15:56:29;10.88;;;6.65;;
38717;SDS011;24468;52.128;9.278;2022-12-18T15:59:14;12.05;;;5.78;;
38717;SDS011;24468;52.128;9.278;2022-12-18T16:01:46;11.97;;;6.80;;
38717;SDS011;24468;52.128;9.278;2022-12-18T16:04:14;8.90;;;5.53;;
38717;SDS011;24468;52.128;9.278;2022-12-18T16:06:44;11.80;;;5.82;;
38717;SDS011;24468;52.128;9.278;2022-12-18T16:09:10;9.20;;;6.18;;
38717;SDS011;24468;52.128;9.278;2022-12-18T16:11:36;8.85;;;6.22;;
38717;SDS011;24468;52.128;9.278;2022-12-18T16:16:53;9.23;;;6.93;;
38717;SDS011;24468;52.128;9.278;2022-12-18T16:19:33;10.40;;;6.40;;
38717;SDS011;24468;52.128;9.278;2022-12-18T16:21:59;12.30;;;7.28;;
38717;SDS011;24468;52.128;9.278;2022-12-18T16:24:26;14.23;;;8.93;;
38717;SDS011;24468;52.128;9.278;2022-12-18T16:26:53;12.07;;;7.78;;
38717;SDS011;24468;52.128;9.278;2022-12-18T16:29:22;14.25;;;8.65;;
38717;SDS011;24468;52.128;9.278;2022-12-18T16:31:52;10.98;;;7.70;;
38717;SDS011;24468;52.128;9.278;2022-12-18T16:34:28;16.83;;;8.65;;
38717;SDS011;24468;52.128;9.278;2022-12-18T16:36:56;15.23;;;7.70;;
38717;SDS011;24468;52.128;9.278;2022-12-18T16:39:27;16.75;;;9.38;;
38717;SDS011;24468;52.128;9.278;2022-12-18T16:41:53;12.90;;;7.60;;
38717;SDS011;24468;52.128;9.278;2022-12-18T16:44:19;14.25;;;7.50;;
38717;SDS011;24468;52.128;9.278;2022-12-18T16:46:45;10.15;;;6.38;;
38717;SDS011;24468;52.128;9.278;2022-12-18T16:49:15;10.48;;;6.70;;